DRI Storm Peak Lab. Weather observations

Data are for 5 minute period ending at time listed.
 Day   Time    Ave.   Ave.  Ave.  Vector  Max.   Total    Baro.    Solar      Aerosol      Ave.  Ultrafine   Snow  
  of    of     Air    Rel.  Wind   Wind   Wind  Precip.   Pres.  Radiation   Aerosol      Ozone   Aerosol    Depth 
Year   Day     Temp.  Hum.  Speed  Dir.   Gust                               Ave.   Max.            Ave.           
2016   (MST)    F      %     mph   deg.    mph    in.      mb.     w/m2         #/cm3      ppbv    #/cm3      in.  
-------------------------------------------------------------------------------------------------------------------
 125    9:00   41.0    39    2.6   212     4.6   999.00    696.6    999.0    999000   999000   999.0    999000   999.0
 125    9:05   40.9    40    2.6   207     4.2   999.00    696.6    999.0    999000   999000   999.0    999000   999.0
 125    9:10   41.1    38    2.6   202     4.0   999.00    696.6    999.0    999000   999000   999.0    999000   999.0
 125    9:15   41.1    38    3.2   238     5.3   999.00    696.6    999.0    999000   999000   999.0    999000   999.0
 125    9:20   41.0    37    3.2   231     5.2   999.00    696.6    999.0    999000   999000   999.0    999000   999.0
 125    9:25   41.1    36    4.0   228     6.3   999.00    696.6    999.0    999000   999000   999.0    999000   999.0
 125    9:30   41.2    36    4.0   230     5.9   999.00    696.6    999.0    999000   999000   999.0    999000   999.0
 125    9:35   41.1    37    4.0   235     6.1   999.00    696.6    999.0    999000   999000   999.0    999000   999.0
 125    9:40   41.3    36    3.9   236     5.5   999.00    696.7    999.0    999000   999000   999.0    999000   999.0
 125    9:45   41.3    37    4.1   235     6.3   999.00    696.7    999.0    999000   999000   999.0    999000   999.0
 125    9:50   41.6    36    3.6   247     6.3   999.00    696.7    999.0    999000   999000   999.0    999000   999.0
 125    9:55   41.7    36    3.5   244     5.9   999.00    696.7    999.0    999000   999000   999.0    999000   999.0
 125   10:00   41.8    38    3.8   244     9.4   999.00    696.7    999.0    999000   999000   999.0    999000   999.0
 125   10:05   41.7    38    3.2   239     6.1   999.00    696.7    999.0    999000   999000   999.0    999000   999.0
 125   10:10   42.0    38    4.1   266     5.7   999.00    696.6    999.0    999000   999000   999.0    999000   999.0
 125   10:15   42.5    38    4.3   266     6.3   999.00    696.6    999.0    999000   999000   999.0    999000   999.0
 125   10:20   42.8    37    5.5   264     9.6   999.00    696.7    999.0    999000   999000   999.0    999000   999.0
 125   10:25   43.0    35    3.6   275     5.3   999.00    696.6    999.0    999000   999000   999.0    999000   999.0
 125   10:30   43.2    36    4.9   295     8.1   999.00    696.6    999.0    999000   999000   999.0    999000   999.0
 125   10:35   42.9    36    5.9   245     8.3   999.00    696.7    999.0    999000   999000   999.0    999000   999.0
 125   10:40   42.8    38    4.0   285     7.9   999.00    696.6    999.0    999000   999000   999.0    999000   999.0
 125   10:45   43.4    38    4.1   281     5.5   999.00    696.6    999.0    999000   999000   999.0    999000   999.0
 125   10:50   43.5    38    4.0   289     8.1   999.00    696.6    999.0    999000   999000   999.0    999000   999.0
 125   10:55   43.6    39    5.6   288     9.6   999.00    696.6    999.0    999000   999000   999.0    999000   999.0
 125   11:00   43.3    38    7.2   261    10.6   999.00    696.5    999.0    999000   999000   999.0    999000   999.0
 125   11:05   43.1    38    6.6   264    10.4   999.00    696.5    999.0    999000   999000   999.0    999000   999.0
 125   11:10   43.4    38    6.9   263    10.2   999.00    696.5    999.0    999000   999000   999.0    999000   999.0
 125   11:15   42.7    38    5.9   236    10.4   999.00    696.6    999.0    999000   999000   999.0    999000   999.0
 125   11:20   43.3    37    4.6   280     9.6   999.00    696.6    999.0    999000   999000   999.0    999000   999.0
 125   11:25   44.1    36    4.8   303     9.8   999.00    696.5    999.0    999000   999000   999.0    999000   999.0
 125   11:30   44.1    34    5.5   310    15.2   999.00    696.4    999.0    999000   999000   999.0    999000   999.0
 125   11:35   44.5    34    8.9   295    13.9   999.00    696.4    999.0    999000   999000   999.0    999000   999.0
 125   11:40   44.6    33    5.2   291     7.9   999.00    696.4    999.0    999000   999000   999.0    999000   999.0
 125   11:45   45.0    32    7.4   294    12.6   999.00    696.3    999.0    999000   999000   999.0    999000   999.0
 125   11:50   44.6    32    7.4   257    13.9   999.00    696.4    999.0    999000   999000   999.0    999000   999.0
 125   11:55   44.5    33    4.0   273     7.9   999.00    696.3    999.0    999000   999000   999.0    999000   999.0
 125   12:00   45.3    31    7.5   298    13.3   999.00    696.2    999.0    999000   999000   999.0    999000   999.0
 125   12:05   45.2    31    7.6   291    13.3   999.00    696.1    999.0    999000   999000   999.0    999000   999.0
 125   12:10   45.4    32    8.9   287    13.0   999.00    696.1    999.0    999000   999000   999.0    999000   999.0
 125   12:15   45.4    32    8.9   275    12.6   999.00    696.2    999.0    999000   999000   999.0    999000   999.0
 125   12:20   45.3    31    8.9   264    13.5   999.00    696.2    999.0    999000   999000   999.0    999000   999.0
 125   12:25   45.4    30    5.2   265    11.5   999.00    696.2    999.0    999000   999000   999.0    999000   999.0
 125   12:30   46.4    31    6.3   293    12.4   999.00    696.1    999.0    999000   999000   999.0    999000   999.0
 125   12:35   46.6    32    6.4   292    10.9   999.00    696.1    999.0    999000   999000   999.0    999000   999.0
 125   12:40   46.3    32    8.1   307    14.1   999.00    696.0    999.0    999000   999000   999.0    999000   999.0
 125   12:45   46.1    31   11.0   311    15.8   999.00    695.9    999.0    999000   999000   999.0    999000   999.0
 125   12:50   46.3    30   10.4   300    15.0   999.00    696.0    999.0    999000   999000   999.0    999000   999.0
 125   12:55   46.1    30    4.7   265    11.5   999.00    696.1    999.0    999000   999000   999.0    999000   999.0
 125   13:00   46.3    31    6.0   274    10.0   999.00    696.0    999.0    999000   999000   999.0    999000   999.0
 125   13:05   46.9    30    5.3   299    10.7   999.00    696.0    999.0    999000   999000   999.0    999000   999.0
 125   13:10   47.1    30    9.0   306    12.6   999.00    696.0    999.0    999000   999000   999.0    999000   999.0
 125   13:15   47.1    30    8.7   308    15.4   999.00    695.9    999.0    999000   999000   999.0    999000   999.0
 125   13:20   47.1    30    5.9   288    13.0   999.00    695.9    999.0    999000   999000   999.0    999000   999.0
 125   13:25   47.3    30    8.0   260    14.1   999.00    695.9    999.0    999000   999000   999.0    999000   999.0
 125   13:30   47.2    31    6.5   275    10.6   999.00    695.9    999.0    999000   999000   999.0    999000   999.0
 125   13:35   47.7    31    7.9   287    13.3   999.00    695.8    999.0    999000   999000   999.0    999000   999.0
 125   13:40   47.3    31   12.7   318    16.9   999.00    695.6    999.0    999000   999000   999.0    999000   999.0
 125   13:45   47.0    32    7.6   300    13.0   999.00    695.8    999.0    999000   999000   999.0    999000   999.0
 125   13:50   47.2    31    7.3   261    12.6   999.00    695.8    999.0    999000   999000   999.0    999000   999.0
 125   13:55   47.5    31    8.8   296    16.3   999.00    695.8    999.0    999000   999000   999.0    999000   999.0
 125   14:00   47.7    30    6.9   301    11.7   999.00    695.8    999.0    999000   999000   999.0    999000   999.0
 125   14:05   47.7    30    8.5   252    15.8   999.00    695.8    999.0    999000   999000   999.0    999000   999.0
 125   14:10   47.8    30    7.0   286    12.8   999.00    695.8    999.0    999000   999000   999.0    999000   999.0
 125   14:15   48.1    31    6.6   307    10.6   999.00    695.7    999.0    999000   999000   999.0    999000   999.0
 125   14:20   48.1    31    5.5   316    10.2   999.00    695.6    999.0    999000   999000   999.0    999000   999.0
 125   14:25   48.7    30    8.9   273    16.7   999.00    695.6    999.0    999000   999000   999.0    999000   999.0
 125   14:30   47.9    29    5.6   268    11.5   999.00    695.6    999.0    999000   999000   999.0    999000   999.0
 125   14:35   48.9    29    5.2   277    11.5   999.00    695.6    999.0    999000   999000   999.0    999000   999.0
 125   14:40   48.5    28    4.4   262    12.8   999.00    695.6    999.0    999000   999000   999.0    999000   999.0
 125   14:45   48.8    29    7.0   296    13.2   999.00    695.5    999.0    999000   999000   999.0    999000   999.0
 125   14:50   48.5    29    7.1   309    11.3   999.00    695.5    999.0    999000   999000   999.0    999000   999.0
 125   14:55   48.8    30    2.9   306     5.9   999.00    695.5    999.0    999000   999000   999.0    999000   999.0
 125   15:00   49.2    29    3.6   296     9.8   999.00    695.4    999.0    999000   999000   999.0    999000   999.0
 125   15:05   49.3    29    4.3   309     6.6   999.00    695.4    999.0    999000   999000   999.0    999000   999.0
 125   15:10   48.6    30    6.0   242    11.7   999.00    695.3    999.0    999000   999000   999.0    999000   999.0
 125   15:15   48.7    30    2.6   243     4.8   999.00    695.3    999.0    999000   999000   999.0    999000   999.0
 125   15:20   49.5    30    6.3   294     9.4   999.00    695.2    999.0    999000   999000   999.0    999000   999.0
 125   15:25   49.0    29    4.3   308     7.8   999.00    695.2    999.0    999000   999000   999.0    999000   999.0
 125   15:30   49.5    28    3.5   273     5.5   999.00    695.2    999.0    999000   999000   999.0    999000   999.0
 125   15:35   50.1    28    3.4   296     7.8   999.00    695.2    999.0    999000   999000   999.0    999000   999.0
 125   15:40   49.6    30    7.0   302    11.8   999.00    695.1    999.0    999000   999000   999.0    999000   999.0
 125   15:45   48.9    30    6.7   308    12.8   999.00    695.1    999.0    999000   999000   999.0    999000   999.0
 125   15:50   49.2    29    7.1   315    11.5   999.00    695.0    999.0    999000   999000   999.0    999000   999.0
 125   15:55   49.4    30    6.7   296    12.0   999.00    695.1    999.0    999000   999000   999.0    999000   999.0
 125   16:00   49.3    30    7.8   301    12.8   999.00    695.0    999.0    999000   999000   999.0    999000   999.0
 125   16:05   49.0    29    5.0   308     8.5   999.00    695.1    999.0    999000   999000   999.0    999000   999.0
 125   16:10   49.5    29    4.8   323     6.5   999.00    695.0    999.0    999000   999000   999.0    999000   999.0
 125   16:15   49.0    30    3.8   340     6.6   999.00    695.0    999.0    999000   999000   999.0    999000   999.0
 125   16:20   48.9    30    4.9   343     9.2   999.00    694.9    999.0    999000   999000   999.0    999000   999.0
 125   16:25   48.9    30    5.1   313     8.3   999.00    694.9    999.0    999000   999000   999.0    999000   999.0
 125   16:30   48.9    30    7.1   306    12.6   999.00    694.9    999.0    999000   999000   999.0    999000   999.0
 125   16:35   49.3    29    5.0   283     9.1   999.00    694.9    999.0    999000   999000   999.0    999000   999.0
 125   16:40   49.1    29    3.0   314     5.5   999.00    694.9    999.0    999000   999000   999.0    999000   999.0
 125   16:45   49.8    29    2.7   311     5.3   999.00    694.9    999.0    999000   999000   999.0    999000   999.0
 125   16:50   49.0    29    5.7   291     8.9   999.00    694.8    999.0    999000   999000   999.0    999000   999.0
 125   16:55   48.2    29    4.6   304     6.6   999.00    694.8    999.0    999000   999000   999.0    999000   999.0
 125   17:00   49.1    29    3.8   302     6.1   999.00    694.7    999.0    999000   999000   999.0    999000   999.0
 125   17:05   49.5    28    3.2   295     4.6   999.00    694.7    999.0    999000   999000   999.0    999000   999.0
 125   17:10   49.8    28    3.5   293     6.8   999.00    694.7    999.0    999000   999000   999.0    999000   999.0
 125   17:15   49.4    28    3.8   265     5.2   999.00    694.6    999.0    999000   999000   999.0    999000   999.0
 125   17:20   49.5    28    2.3   268     3.7   999.00    694.6    999.0    999000   999000   999.0    999000   999.0
 125   17:25   50.0    28    4.2   290     7.6   999.00    694.5    999.0    999000   999000   999.0    999000   999.0
 125   17:30   49.6    29    4.9   317     8.7   999.00    694.4    999.0    999000   999000   999.0    999000   999.0
 125   17:35   49.3    30    4.9   318     7.4   999.00    694.4    999.0    999000   999000   999.0    999000   999.0
 125   17:40   49.2    30    4.4   305     7.4   999.00    694.5    999.0    999000   999000   999.0    999000   999.0
 125   17:45   49.3    29    3.3   296     5.5   999.00    694.4    999.0    999000   999000   999.0    999000   999.0
 125   17:50   49.5    30    3.0   298     4.8   999.00    694.4    999.0    999000   999000   999.0    999000   999.0
 125   17:55   48.7    30    3.4   238     6.5   999.00    694.4    999.0    999000   999000   999.0    999000   999.0
 125   18:00   48.9    30    3.4   285     6.6   999.00    694.4    999.0    999000   999000   999.0    999000   999.0
 125   18:05   49.1    30    3.9   298     5.5   999.00    694.4    999.0    999000   999000   999.0    999000   999.0
 125   18:10   48.8    30    2.9   299     4.2   999.00    694.4    999.0    999000   999000   999.0    999000   999.0
 125   18:15   49.0    30    2.8   294     4.4   999.00    694.4    999.0    999000   999000   999.0    999000   999.0
 125   18:20   48.9    31    2.8   284     5.0   999.00    694.4    999.0    999000   999000   999.0    999000   999.0
 125   18:25   48.9    31    2.9   292     3.7   999.00    694.4    999.0    999000   999000   999.0    999000   999.0
 125   18:30   48.6    31    3.1   296     4.2   999.00    694.4    999.0    999000   999000   999.0    999000   999.0
 125   18:35   48.4    31    2.7   303     3.5   999.00    694.4    999.0    999000   999000   999.0    999000   999.0
 125   18:40   48.3    31    2.5   302     3.3   999.00    694.4    999.0    999000   999000   999.0    999000   999.0
 125   18:45   47.9    32    2.6   297     3.3   999.00    694.4    999.0    999000   999000   999.0    999000   999.0
 125   18:50   47.5    32    2.5   293     3.3   999.00    694.3    999.0    999000   999000   999.0    999000   999.0
 125   18:55   47.1    33    3.1   302     3.7   999.00    694.3    999.0    999000   999000   999.0    999000   999.0
 125   19:00   46.9    33    2.9   304     3.5   999.00    694.3    999.0    999000   999000   999.0    999000   999.0
 125   19:05   46.6    33    2.7   306     3.3   999.00    694.3    999.0    999000   999000   999.0    999000   999.0
 125   19:10   46.6    33    2.6   306     3.3   999.00    694.2    999.0    999000   999000   999.0    999000   999.0
 125   19:15   46.5    33    2.4   307     3.1   999.00    694.2    999.0    999000   999000   999.0    999000   999.0
 125   19:20   46.5    33    2.3   308     2.7   999.00    694.2    999.0    999000   999000   999.0    999000   999.0
 125   19:25   46.5    33    2.3   308     3.1   999.00    694.2    999.0    999000   999000   999.0    999000   999.0
 125   19:30   46.5    33    1.8   308     2.4   999.00    694.2    999.0    999000   999000   999.0    999000   999.0
 125   19:35   46.5    33    1.8   308     1.8   999.00    694.3    999.0    999000   999000   999.0    999000   999.0
 125   19:40   46.4    33    1.9   308     2.4   999.00    694.3    999.0    999000   999000   999.0    999000   999.0
 125   19:45   46.3    33    2.3   308     2.7   999.00    694.4    999.0    999000   999000   999.0    999000   999.0
 125   19:50   46.1    34    2.1   308     2.5   999.00    694.4    999.0    999000   999000   999.0    999000   999.0
 125   19:55   46.3    33    2.2   308     2.5   999.00    694.4    999.0    999000   999000   999.0    999000   999.0
 125   20:00   46.3    33    1.8   308     2.2   999.00    694.4    999.0    999000   999000   999.0    999000   999.0
 125   20:05   45.8    34    1.8   307     1.8   999.00    694.5    999.0    999000   999000   999.0    999000   999.0
 125   20:10   45.6    34    1.8   307     1.8   999.00    694.4    999.0    999000   999000   999.0    999000   999.0
 125   20:15   45.8    34    1.8   306     1.8   999.00    694.5    999.0    999000   999000   999.0    999000   999.0
 125   20:20   45.6    34    1.8   300     1.8   999.00    694.5    999.0    999000   999000   999.0    999000   999.0
 125   20:25   45.4    34    1.8   298     1.8   999.00    694.6    999.0    999000   999000   999.0    999000   999.0
 125   20:30   45.5    34    1.9   298     2.5   999.00    694.6    999.0    999000   999000   999.0    999000   999.0
 125   20:35   45.8    34    2.2   298     2.5   999.00    694.6    999.0    999000   999000   999.0    999000   999.0
 125   20:40   45.9    33    1.9   298     2.4   999.00    694.7    999.0    999000   999000   999.0    999000   999.0
 125   20:45   45.9    33    1.9   298     2.5   999.00    694.8    999.0    999000   999000   999.0    999000   999.0
 125   20:50   45.9    33    2.4   299     2.7   999.00    694.8    999.0    999000   999000   999.0    999000   999.0
 125   20:55   45.8    33    2.2   299     2.9   999.00    694.8    999.0    999000   999000   999.0    999000   999.0
 125   21:00   45.9    33    2.6   299     3.1   999.00    694.8    999.0    999000   999000   999.0    999000   999.0
 125   21:05   45.8    32    2.2   299     3.1   999.00    694.8    999.0    999000   999000   999.0    999000   999.0
 125   21:10   45.7    32    2.4   299     2.7   999.00    694.8    999.0    999000   999000   999.0    999000   999.0
 125   21:15   45.6    32    1.9   299     2.4   999.00    694.8    999.0    999000   999000   999.0    999000   999.0
 125   21:20   45.8    32    1.8   299     1.8   999.00    694.8    999.0    999000   999000   999.0    999000   999.0
 125   21:25   45.8    32    1.8   299     1.8   999.00    694.8    999.0    999000   999000   999.0    999000   999.0
 125   21:30   45.8    32    1.8   299     1.8   999.00    694.8    999.0    999000   999000   999.0    999000   999.0
 125   21:35   45.4    32    1.8   299     1.8   999.00    694.8    999.0    999000   999000   999.0    999000   999.0
 125   21:40   45.0    32    1.8   299     1.8   999.00    694.8    999.0    999000   999000   999.0    999000   999.0
 125   21:45   44.9    32    1.8   299     1.8   999.00    694.8    999.0    999000   999000   999.0    999000   999.0
 125   21:50   44.7    33    1.8   299     1.8   999.00    694.8    999.0    999000   999000   999.0    999000   999.0
 125   21:55   44.7    33    1.8   299     1.8   999.00    694.8    999.0    999000   999000   999.0    999000   999.0
 125   22:00   44.6    33    1.8   299     1.8   999.00    694.7    999.0    999000   999000   999.0    999000   999.0
 125   22:05   44.7    33    1.8   298     1.8   999.00    694.7    999.0    999000   999000   999.0    999000   999.0
 125   22:10   44.7    33    1.8   298     1.8   999.00    694.7    999.0    999000   999000   999.0    999000   999.0
 125   22:15   44.6    34    1.8   289     1.8   999.00    694.7    999.0    999000   999000   999.0    999000   999.0
 125   22:20   45.0    33    2.3   281     3.1   999.00    694.6    999.0    999000   999000   999.0    999000   999.0
 125   22:25   45.3    33    2.6   279     2.9   999.00    694.6    999.0    999000   999000   999.0    999000   999.0
 125   22:30   45.4    33    2.5   273     3.1   999.00    694.6    999.0    999000   999000   999.0    999000   999.0
 125   22:35   45.0    34    2.8   267     3.8   999.00    694.6    999.0    999000   999000   999.0    999000   999.0
 125   22:40   45.0    35    2.9   246     3.7   999.00    694.6    999.0    999000   999000   999.0    999000   999.0
 125   22:45   44.9    35    3.0   245     3.7   999.00    694.6    999.0    999000   999000   999.0    999000   999.0
 125   22:50   44.9    35    3.2   240     3.7   999.00    694.6    999.0    999000   999000   999.0    999000   999.0
 125   22:55   44.5    35    3.3   234     3.7   999.00    694.6    999.0    999000   999000   999.0    999000   999.0
 125   23:00   44.5    35    3.1   230     3.8   999.00    694.6    999.0    999000   999000   999.0    999000   999.0
 125   23:05   44.4    36    2.9   225     3.7   999.00    694.6    999.0    999000   999000   999.0    999000   999.0
 125   23:10   43.7    40    3.0   219     4.8   999.00    694.6    999.0    999000   999000   999.0    999000   999.0
 125   23:15   43.2    40    3.3   219     4.8   999.00    694.7    999.0    999000   999000   999.0    999000   999.0
 125   23:20   43.3    40    3.7   227     5.0   999.00    694.7    999.0    999000   999000   999.0    999000   999.0
 125   23:25   43.6    38    4.3   236     5.5   999.00    694.7    999.0    999000   999000   999.0    999000   999.0
 125   23:30   43.4    39    4.9   236     6.8   999.00    694.7    999.0    999000   999000   999.0    999000   999.0
 125   23:35   43.2    40    4.4   246     5.7   999.00    694.7    999.0    999000   999000   999.0    999000   999.0
 125   23:40   43.4    38    5.5   250     7.4   999.00    694.8    999.0    999000   999000   999.0    999000   999.0
 125   23:45   43.3    39    6.0   245     7.2   999.00    694.7    999.0    999000   999000   999.0    999000   999.0
 125   23:50   43.3    40    6.0   248     8.1   999.00    694.7    999.0    999000   999000   999.0    999000   999.0
 125   23:55   43.4    40    5.2   263     8.1   999.00    694.7    999.0    999000   999000   999.0    999000   999.0
 126    0:00   43.4    41    6.2   266     8.9   999.00    694.6    999.0    999000   999000   999.0    999000   999.0
 126    0:05   43.2    42    5.2   270     8.9   999.00    694.6    999.0    999000   999000   999.0    999000   999.0
 126    0:10   43.0    43    4.8   271     7.4   999.00    694.6    999.0    999000   999000   999.0    999000   999.0
 126    0:15   42.9    43    6.3   272     9.1   999.00    694.6    999.0    999000   999000   999.0    999000   999.0
 126    0:20   42.8    44    6.2   272     9.1   999.00    694.6    999.0    999000   999000   999.0    999000   999.0
 126    0:25   42.8    44    5.4   271     7.2   999.00    694.6    999.0    999000   999000   999.0    999000   999.0
 126    0:30   42.8    44    4.9   270     8.7   999.00    694.6    999.0    999000   999000   999.0    999000   999.0
 126    0:35   42.9    43    5.2   267     8.5   999.00    694.6    999.0    999000   999000   999.0    999000   999.0
 126    0:40   42.9    43    5.1   260     7.6   999.00    694.6    999.0    999000   999000   999.0    999000   999.0
 126    0:45   42.9    44    7.3   254    10.6   999.00    694.6    999.0    999000   999000   999.0    999000   999.0
 126    0:50   43.0    44    7.0   253     9.1   999.00    694.6    999.0    999000   999000   999.0    999000   999.0
 126    0:55   43.0    44    7.6   253     9.8   999.00    694.5    999.0    999000   999000   999.0    999000   999.0
 126    1:00   43.0    44    8.1   248    10.4   999.00    694.5    999.0    999000   999000   999.0    999000   999.0
 126    1:05   42.8    44    8.7   251    11.7   999.00    694.5    999.0    999000   999000   999.0    999000   999.0
 126    1:10   42.6    45    8.1   245     9.8   999.00    694.4    999.0    999000   999000   999.0    999000   999.0
 126    1:15   42.5    44    9.2   244    11.1   999.00    694.4    999.0    999000   999000   999.0    999000   999.0
 126    1:20   42.5    44    9.3   244    12.8   999.00    694.4    999.0    999000   999000   999.0    999000   999.0
 126    1:25   42.6    42    9.9   245    12.4   999.00    694.4    999.0    999000   999000   999.0    999000   999.0
 126    1:30   42.2    43    8.0   243    10.2   999.00    694.4    999.0    999000   999000   999.0    999000   999.0
 126    1:35   42.3    41   10.9   240    13.9   999.00    694.4    999.0    999000   999000   999.0    999000   999.0
 126    1:40   42.3    40    9.8   243    13.2   999.00    694.4    999.0    999000   999000   999.0    999000   999.0
 126    1:45   42.4    40    9.1   246    13.5   999.00    694.4    999.0    999000   999000   999.0    999000   999.0
 126    1:50   42.2    40   10.2   244    13.7   999.00    694.4    999.0    999000   999000   999.0    999000   999.0
 126    1:55   42.0    40    9.4   236    16.3   999.00    694.3    999.0    999000   999000   999.0    999000   999.0
 126    2:00   41.9    40   10.4   241    15.9   999.00    694.3    999.0    999000   999000   999.0    999000   999.0
 126    2:05   41.9    40   10.4   237    14.1   999.00    694.3    999.0    999000   999000   999.0    999000   999.0
 126    2:10   41.8    40   10.6   234    14.3   999.00    694.4    999.0    999000   999000   999.0    999000   999.0
 126    2:15   41.7    41   10.6   232    13.9   999.00    694.4    999.0    999000   999000   999.0    999000   999.0
 126    2:20   41.6    41   10.9   227    15.9   999.00    694.3    999.0    999000   999000   999.0    999000   999.0
 126    2:25   41.7    41    8.4   227    12.4   999.00    694.3    999.0    999000   999000   999.0    999000   999.0
 126    2:30   41.6    41    9.2   226    13.2   999.00    694.3    999.0    999000   999000   999.0    999000   999.0
 126    2:35   41.7    41   10.4   228    13.5   999.00    694.4    999.0    999000   999000   999.0    999000   999.0
 126    2:40   41.6    41    9.8   226    14.1   999.00    694.4    999.0    999000   999000   999.0    999000   999.0
 126    2:45   41.6    41   11.1   226    13.2   999.00    694.4    999.0    999000   999000   999.0    999000   999.0
 126    2:50   41.6    41    8.7   220    10.7   999.00    694.3    999.0    999000   999000   999.0    999000   999.0
 126    2:55   41.9    40    8.4   218    12.2   999.00    694.3    999.0    999000   999000   999.0    999000   999.0
 126    3:00   42.1    40    7.9   218    11.8   999.00    694.3    999.0    999000   999000   999.0    999000   999.0
 126    3:05   42.0    40    8.0   217    11.8   999.00    694.4    999.0    999000   999000   999.0    999000   999.0
 126    3:10   42.1    40    8.0   218    13.3   999.00    694.3    999.0    999000   999000   999.0    999000   999.0
 126    3:15   42.0    40    6.4   215     9.4   999.00    694.3    999.0    999000   999000   999.0    999000   999.0
 126    3:20   41.8    41    5.7   214     7.9   999.00    694.3    999.0    999000   999000   999.0    999000   999.0
 126    3:25   41.8    41    4.6   212     5.9   999.00    694.3    999.0    999000   999000   999.0    999000   999.0
 126    3:30   41.9    41    3.6   210     4.8   999.00    694.3    999.0    999000   999000   999.0    999000   999.0
 126    3:35   42.0    41    3.7   211     5.3   999.00    694.3    999.0    999000   999000   999.0    999000   999.0
 126    3:40   42.1    41    4.9   205     8.1   999.00    694.3    999.0    999000   999000   999.0    999000   999.0
 126    3:45   42.1    40    6.4   200     8.7   999.00    694.4    999.0    999000   999000   999.0    999000   999.0
 126    3:50   42.3    40    5.8   199     8.5   999.00    694.4    999.0    999000   999000   999.0    999000   999.0
 126    3:55   42.1    40    5.9   201     8.5   999.00    694.4    999.0    999000   999000   999.0    999000   999.0
 126    4:00   42.0    40    4.8   204     7.0   999.00    694.4    999.0    999000   999000   999.0    999000   999.0
 126    4:05   42.1    40    4.2   207     7.4   999.00    694.3    999.0    999000   999000   999.0    999000   999.0
 126    4:10   42.0    40    4.2   208     6.3   999.00    694.3    999.0    999000   999000   999.0    999000   999.0
 126    4:15   41.7    41    4.3   210     6.3   999.00    694.3    999.0    999000   999000   999.0    999000   999.0
 126    4:20   41.6    41    4.4   209     8.5   999.00    694.3    999.0    999000   999000   999.0    999000   999.0
 126    4:25   41.9    40    5.1   210     7.0   999.00    694.4    999.0    999000   999000   999.0    999000   999.0
 126    4:30   41.8    41    5.2   212     6.8   999.00    694.4    999.0    999000   999000   999.0    999000   999.0
 126    4:35   41.8    41    4.8   210     7.6   999.00    694.4    999.0    999000   999000   999.0    999000   999.0
 126    4:40   41.8    40    4.0   207     6.8   999.00    694.4    999.0    999000   999000   999.0    999000   999.0
 126    4:45   41.7    41    5.3   206     9.2   999.00    694.4    999.0    999000   999000   999.0    999000   999.0
 126    4:50   41.7    40    7.7   199    13.7   999.00    694.4    999.0    999000   999000   999.0    999000   999.0
 126    4:55   41.7    41    7.3   196    10.6   999.00    694.4    999.0    999000   999000   999.0    999000   999.0
 126    5:00   41.8    40    6.8   192    11.3   999.00    694.4    999.0    999000   999000   999.0    999000   999.0
 126    5:05   41.7    40    6.5   192    12.2   999.00    694.4    999.0    999000   999000   999.0    999000   999.0
 126    5:10   41.6    40    6.4   186     9.8   999.00    694.4    999.0    999000   999000   999.0    999000   999.0
 126    5:15   41.3    40    6.0   182    10.2   999.00    694.4    999.0    999000   999000   999.0    999000   999.0
 126    5:20   41.4    41    6.8   183    10.7   999.00    694.4    999.0    999000   999000   999.0    999000   999.0
 126    5:25   41.5    40    6.2   186     9.8   999.00    694.5    999.0    999000   999000   999.0    999000   999.0
 126    5:30   41.4    40    6.9   181    10.6   999.00    694.5    999.0    999000   999000   999.0    999000   999.0
 126    5:35   41.4    40    7.6   187    10.6   999.00    694.6    999.0    999000   999000   999.0    999000   999.0
 126    5:40   41.2    40    6.3   185    10.4   999.00    694.6    999.0    999000   999000   999.0    999000   999.0
 126    5:45   41.3    40    5.7   187     7.9   999.00    694.7    999.0    999000   999000   999.0    999000   999.0
 126    5:50   41.7    39    7.6   182    12.6   999.00    694.7    999.0    999000   999000   999.0    999000   999.0
 126    5:55   41.5    39    7.2   190    12.2   999.00    694.7    999.0    999000   999000   999.0    999000   999.0
 126    6:00   41.8    39    7.8   187    11.1   999.00    694.7    999.0    999000   999000   999.0    999000   999.0
 126    6:05   41.9    38    8.7   182    11.3   999.00    694.7    999.0    999000   999000   999.0    999000   999.0
 126    6:10   41.8    39    7.8   187    10.6   999.00    694.8    999.0    999000   999000   999.0    999000   999.0
 126    6:15   41.8    39    8.7   182    11.3   999.00    694.8    999.0    999000   999000   999.0    999000   999.0
 126    6:20   42.2    38    7.9   184    12.2   999.00    694.8    999.0    999000   999000   999.0    999000   999.0
 126    6:25   42.3    38    6.5   185     9.8   999.00    694.8    999.0    999000   999000   999.0    999000   999.0
 126    6:30   42.2    38    6.9   188    10.6   999.00    694.9    999.0    999000   999000   999.0    999000   999.0
 126    6:35   42.6    37    6.6   192     9.1   999.00    694.9    999.0    999000   999000   999.0    999000   999.0
 126    6:40   42.6    38    6.8   196    10.2   999.00    694.9    999.0    999000   999000   999.0    999000   999.0
 126    6:45   42.7    38    4.8   200     9.1   999.00    694.9    999.0    999000   999000   999.0    999000   999.0
 126    6:50   42.7    38    4.9   191     9.6   999.00    695.0    999.0    999000   999000   999.0    999000   999.0
 126    6:55   42.6    38    4.4   190     7.0   999.00    695.0    999.0    999000   999000   999.0    999000   999.0
 126    7:00   42.7    38    5.5   195     9.1   999.00    695.0    999.0    999000   999000   999.0    999000   999.0
 126    7:05   42.9    37    7.8   199    10.9   999.00    695.0    999.0    999000   999000   999.0    999000   999.0
 126    7:10   42.8    38    5.6   195    10.0   999.00    695.0    999.0    999000   999000   999.0    999000   999.0
 126    7:15   42.8    38    6.1   198    10.0   999.00    695.0    999.0    999000   999000   999.0    999000   999.0
 126    7:20   43.1    38    4.8   185     7.4   999.00    695.1    999.0    999000   999000   999.0    999000   999.0
 126    7:25   43.4    37    4.9   177     7.4   999.00    695.1    999.0    999000   999000   999.0    999000   999.0
 126    7:30   43.5    37    3.9   181     6.1   999.00    695.0    999.0    999000   999000   999.0    999000   999.0
 126    7:35   43.8    37    3.7   188     6.5   999.00    695.0    999.0    999000   999000   999.0    999000   999.0
 126    7:40   43.4    38    3.7   198     6.6   999.00    695.1    999.0    999000   999000   999.0    999000   999.0
 126    7:45   43.8    37    4.1   198     5.9   999.00    695.1    999.0    999000   999000   999.0    999000   999.0
 126    7:50   43.9    37    4.2   201     6.1   999.00    695.0    999.0    999000   999000   999.0    999000   999.0
 126    7:55   43.9    36    4.0   202     5.5   999.00    695.0    999.0    999000   999000   999.0    999000   999.0
 126    8:00   43.9    37    4.1   204     6.8   999.00    695.0    999.0    999000   999000   999.0    999000   999.0
 126    8:05   43.7    37    3.9   206     6.5   999.00    695.0    999.0    999000   999000   999.0    999000   999.0
 126    8:10   43.7    38    3.4   207     5.5   999.00    695.0    999.0    999000   999000   999.0    999000   999.0
 126    8:15   44.2    36    4.0   210     7.0   999.00    695.0    999.0    999000   999000   999.0    999000   999.0
 126    8:20   44.2    37    4.1   202     7.0   999.00    695.1    999.0    999000   999000   999.0    999000   999.0
 126    8:25   43.9    38    4.7   205     7.6   999.00    695.1    999.0    999000   999000   999.0    999000   999.0
 126    8:30   44.1    38    3.8   205     6.1   999.00    695.1    999.0    999000   999000   999.0    999000   999.0
 126    8:35   44.4    37    4.8   204     8.5   999.00    695.0    999.0    999000   999000   999.0    999000   999.0
 126    8:40   44.5    37    4.7   205     8.1   999.00    695.0    999.0    999000   999000   999.0    999000   999.0
 126    8:45   44.7    36    5.4   218     8.9   999.00    695.0    999.0    999000   999000   999.0    999000   999.0
 126    8:50   44.6    37    4.7   219     6.8   999.00    695.0    999.0    999000   999000   999.0    999000   999.0
 126    8:55   44.6    36    4.6   218     6.6   999.00    694.9    999.0    999000   999000   999.0    999000   999.0

Return to DRI Storm Peak Lab. graphs page.


Western Regional Climate Center,wrcc@dri.edu